Tiempo atmosférico en la estación meteorológica de Sineu, Illes Balears (120 m.)



Fecha
DESCASC
Temp. máxima en grados centígrados (hora)
DESCASC
Temp. mínima en grados centígrados (hora)
DESCASC
Temp. media en grados centígrados
DESCASC
Racha de viento máxima en m/sg (hora)
DESCASC
Velocidad máxima media en intervalos de 10 minutos(hora)
DESCASC
Precipitaciones diarias en mm
DESCASC
Precipitaciones de 00:00 a 06:00 en mm
DESCASC
Precipitaciones de 06:00 a 12:00 en mm
DESCASC
Precipitaciones de 12:00 a 18:00 en mm
DESCASC
Precipitaciones de 18:00 a 24:00 en mm
DESCASC
28-02-2021 15.3 (15:20) 4.2 (04:50) 9.8 6.67 (13:40) 4.44 (13:40) 0 0 0 0 0
27-02-2021 15.5 (15:30) 2.5 (06:50) 9 7.5 (13:30) 5 (12:30) 0 0 0 0 0
26-02-2021 15.8 (15:20) 3.6 (04:10) 9.7 5.56 (14:30) 3.33 (11:30) 0 0 0 0 0
25-02-2021 17.1 (15:30) 4.2 (00:00) 10.7 5.28 (16:10) 3.61 (16:10) 0 0 0 0 0
24-02-2021 16.7 (15:10) 6.2 (00:00) 11.5 7.22 (12:30) 4.17 (12:00) 0 0 0 0 0
23-02-2021 16.5 (16:40) 7 (00:00) 11.8 6.39 (17:10) 3.89 (16:20) 0 0 0 0 0
22-02-2021 16.7 (00:20) 8 (00:00) 12.4 7.5 (07:00) 4.17 (07:00) 0 0 0 0 0
21-02-2021 17.8 (22:50) 10.3 (00:00) 14 9.44 (12:10) 5.28 (13:50) 0 0 0 0 0
20-02-2021 18.3 (14:30) 5.7 (00:00) 12 5.56 (15:00) 3.61 (14:40) 0 0 0 0 0
19-02-2021 18.8 (15:30) 4.6 (00:00) 11.7 5.83 (15:50) 4.17 (15:50) 0 0 0 0 0
18-02-2021 19.3 (15:10) 9.1 (00:00) 14.2 5.56 (11:50) 3.06 (12:10) 0 0 0 0 0
17-02-2021 18.2 (16:00) 3 (00:00) 10.6 4.17 (16:20) 3.06 (16:20) 0 0 0 0 0
16-02-2021 14.9 (13:30) 2 (00:00) 8.4 7.5 (14:20) 3.89 (14:10) 0 0 0 0 0
15-02-2021 11.9 (14:10) 4 (00:00) 7.9 4.72 (16:50) 2.78 (17:00) 0 0 0 0 0
14-02-2021 11.2 (00:00) 7 (00:00) 9.1 7.22 (14:00) 4.17 (13:50) 0.4 0.2 0 0.2 0
13-02-2021 15.4 (14:00) 8.9 (00:00) 12.1 5.56 (05:50) 3.33 (05:50) 0.8 0.8 0 0 0
12-02-2021 16.9 (16:30) 8 (00:00) 12.4 10.56 (16:20) 6.39 (16:20) 2.4 0 0 0 2.4
11-02-2021 19.2 (15:50) 8.9 (00:00) 14.1 7.5 (12:20) 4.44 (11:50) 0 0 0 0 0
10-02-2021 15.8 (12:20) 10.3 (00:00) 13.1 17.5 (11:10) 9.44 (12:30) 0 0 0 0 0
09-02-2021 16.3 (12:50) 9.7 (00:00) 13 14.17 (22:40) 7.5 (23:00) 1 0 0 0 1
08-02-2021 15.1 (11:20) 7.6 (00:00) 11.4 14.44 (12:30) 7.78 (15:10) 1.2 0 0 1.2 0
07-02-2021 14.3 (11:00) 7.3 (00:00) 10.8 8.33 (12:10) 4.44 (13:40) 0 0 0 0 0
06-02-2021 21.3 (02:50) 12.2 (00:00) 16.7 11.39 (03:40) 6.11 (02:30) 0 0 0 0 0
05-02-2021 23.3 (14:50) 7.8 (00:00) 15.5 8.06 (14:00) 3.61 (14:00) 0 0 0 0 0
04-02-2021 20.7 (17:00) 8.7 (00:00) 14.7 3.89 (17:10) 2.22 (17:10) 0 0 0 0 0
03-02-2021 19 (15:50) 10.4 (00:00) 14.7 9.44 (11:20) 5.56 (11:20) 0 0 0 0 0
02-02-2021 21 (15:50) 10.6 (00:00) 15.8 9.44 (00:10) 4.72 (01:00) 0 0 0 0 0
01-02-2021 18.9 (20:20) 13.1 (00:00) 16 20 (12:30) 11.11 (12:30) 0 0 0 0 0
31-01-2021 17 (13:30) 11.2 (00:00) 14.1 16.11 (09:50) 9.17 (09:40) 0 0 0 0 0

Gráficas

Temp. máximas Temp. mínimas Temp. medias Precipitaciones Rachas de viento máximas Velocidades máximas media en intervalos de 10 minutos

Datos horarios

Fecha y hora oficial Temperatura (ºC) Velocidad del viento (km/h) Dirección del viento Racha (km/h) Dirección de racha Precipitación (mm) Presión (hPa) Tendencia (hPa) Humedad (%)
2021-03-01 23:00:00 13.2 14 Nordeste 29 Nordeste 0 -- -- 76
2021-03-01 22:00:00 13.1 9 Nordeste 18 Nordeste 0 -- -- 76
2021-03-01 21:00:00 13.1 11 Nordeste 24 Nordeste 0 -- -- 74
2021-03-01 20:00:00 13.2 13 Nordeste 21 Nordeste 0 -- -- 74
2021-03-01 19:00:00 13.4 13 Nordeste 24 Nordeste 0 -- -- 72
2021-03-01 18:00:00 13.8 15 Nordeste 31 Este 0 -- -- 69
2021-03-01 17:00:00 14.5 15 Nordeste 26 Nordeste 0 -- -- 68
2021-03-01 16:00:00 14.4 18 Nordeste 29 Nordeste 0 -- -- 70
2021-03-01 15:00:00 14.7 13 Este 28 Este 0 -- -- 67
2021-03-01 14:00:00 14.7 17 Este 28 Este 0 -- -- 63
2021-03-01 13:00:00 14.9 15 Este 34 Nordeste 0 -- -- 60
2021-03-01 12:00:00 14.6 17 Este 31 Este 0 -- -- 59
2021-03-01 11:00:00 14 15 Este 28 Nordeste 0 -- -- 66
2021-03-01 10:00:00 13.4 11 Nordeste 25 Nordeste 0 -- -- 70
2021-03-01 09:00:00 12.4 12 Nordeste 19 Nordeste 0 -- -- 72
2021-03-01 08:00:00 11.8 11 Nordeste 15 Nordeste 0 -- -- 75
2021-03-01 07:00:00 11.7 8 Nordeste 12 Norte 0 -- -- 72
2021-03-01 06:00:00 11.6 8 Nordeste 12 Nordeste 0 -- -- 72
2021-03-01 05:00:00 11.4 6 Nordeste 13 Nordeste 0 -- -- 72
2021-03-01 04:00:00 11.3 4 Nordeste 11 Nordeste 0 -- -- 73
2021-03-01 03:00:00 11.8 9 Nordeste 14 Nordeste 0 -- -- 68
2021-03-01 02:00:00 11.6 4 Norte 15 Nordeste 0 -- -- 72
2021-03-01 01:00:00 11.4 4 Nordeste 10 Nordeste 0 -- -- 74
2021-03-01 00:00:00 11.2 5 Nordeste 10 Este 0 -- -- 76
2021-02-28 23:00:00 11.4 6 Nordeste 12 Nordeste 0 -- -- 75
2021-02-28 22:00:00 11.2 5 Nordeste 12 Nordeste 0 -- -- 75
2021-02-28 21:00:00 11.1 6 Nordeste 12 Nordeste 0 -- -- 73
2021-02-28 20:00:00 11.4 7 Este 15 Este 0 -- -- 73
2021-02-28 19:00:00 12.2 8 Este 16 Nordeste 0 -- -- 70
2021-02-28 18:00:00 13.3 9 Nordeste 24 Nordeste 0 -- -- 69
2021-02-28 17:00:00 13.9 15 Nordeste 24 Norte 0 -- -- 70
2021-02-28 16:00:00 14.5 14 Nordeste 24 Nordeste 0 -- -- 67
2021-02-28 15:00:00 14.8 10 Este 24 Norte 0 -- -- 57
2021-02-28 14:00:00 14.9 15 Nordeste 24 Nordeste 0 -- -- 65
2021-02-28 13:00:00 14.8 13 Nordeste 22 Nordeste 0 -- -- 65
2021-02-28 12:00:00 14 11 Nordeste 19 Nordeste 0 -- -- 67
2021-02-28 11:00:00 13.7 12 Nordeste 22 Nordeste 0 -- -- 67
2021-02-28 10:00:00 12.9 12 Nordeste 18 Nordeste 0 -- -- 73
2021-02-28 09:00:00 9 0 Calma 2 Norte 0 -- -- 99
2021-02-28 08:00:00 5.6 0 Calma 3 Norte 0 -- -- 98
2021-02-28 07:00:00 4.4 0 Calma 2 Sudeste 0 -- -- 94
2021-02-28 06:00:00 4.6 0 Calma 3 Sudeste 0 -- -- 93
2021-02-28 05:00:00 4.6 0 Calma 2 Sudoeste 0 -- -- 90
2021-02-28 04:00:00 4.7 0 Calma 0 Calma 0 -- -- 88
2021-02-28 03:00:00 4.8 0 Calma 2 Sudoeste 0 -- -- 87
2021-02-28 02:00:00 5.3 0 Calma 0 Calma 0 -- -- 86
2021-02-28 01:00:00 5.6 0 Calma 2 Sudoeste 0 -- -- 86
2021-02-28 00:00:00 5.9 0 Calma -- -- 0 -- -- 83
2021-02-27 23:00:00 6.6 0 Calma -- -- 0 -- -- 80
2021-02-27 22:00:00 7.7 0 Calma -- -- 0 -- -- 80
2021-02-27 21:00:00 8.8 0 Calma 4 Nordeste 0 -- -- 77
2021-02-27 20:00:00 10.4 5 Nordeste 12 Nordeste 0 -- -- 72
2021-02-27 19:00:00 11.7 10 Nordeste 17 Nordeste 0 -- -- 67
2021-02-27 18:00:00 13.6 12 Nordeste 19 Nordeste 0 -- -- 62
2021-02-27 17:00:00 14.9 11 Nordeste 23 Norte 0 -- -- 57
2021-02-27 16:00:00 15.3 14 Nordeste 21 Nordeste 0 -- -- 58
2021-02-27 15:00:00 15.2 13 Nordeste 23 Nordeste 0 -- -- 61
2021-02-27 14:00:00 14.7 14 Nordeste 27 Nordeste 0 -- -- 65
2021-02-27 13:00:00 14.9 16 Nordeste 26 Norte 0 -- -- 66
2021-02-27 12:00:00 15.1 13 Nordeste 21 Nordeste 0 -- -- 65
2021-02-27 11:00:00 13.7 12 Nordeste 19 Nordeste 0 -- -- 74
2021-02-27 10:00:00 12.3 9 Nordeste 14 Nordeste 0 -- -- 81
2021-02-27 09:00:00 7.6 0 Calma -- -- 0 -- -- 99
2021-02-27 08:00:00 2.9 0 Calma -- -- 0 -- -- 91
2021-02-27 07:00:00 2.5 0 Calma 0 Calma 0 -- -- 89
2021-02-27 06:00:00 2.8 0 Calma 2 Sur 0 -- -- 88
2021-02-27 05:00:00 3 0 Calma -- -- 0 -- -- 87
2021-02-27 04:00:00 3.3 0 Calma 0 Calma 0 -- -- 86
2021-02-27 03:00:00 3.9 0 Calma -- -- 0 -- -- 86
2021-02-27 02:00:00 4.2 0 Calma -- -- 0 -- -- 85
2021-02-27 01:00:00 5.2 0 Calma 2 Sur 0 -- -- 84
2021-02-27 00:00:00 5.7 0 Calma 0 Calma 0 -- -- 83
2021-02-26 23:00:00 6.9 0 Calma 4 Sudoeste 0 -- -- 84
2021-02-26 22:00:00 7.6 0 Calma 0 Calma 0 -- -- 81
2021-02-26 21:00:00 8.9 0 Calma 3 Norte 0 -- -- 80
2021-02-26 20:00:00 10.1 0 Calma 6 Nordeste 0 -- -- 78
2021-02-26 19:00:00 11.1 5 Nordeste 17 Nordeste 0 -- -- 75
2021-02-26 18:00:00 13 10 Nordeste 16 Nordeste 0 -- -- 67
2021-02-26 17:00:00 14.9 10 Norte 17 Norte 0 -- -- 61
2021-02-26 16:00:00 15.8 8 Nordeste 15 Nordeste 0 -- -- 56
2021-02-26 15:00:00 15.6 8 Nordeste 20 Norte 0 -- -- 58
2021-02-26 14:00:00 15.4 8 Nordeste 19 Nordeste 0 -- -- 60
2021-02-26 13:00:00 15 10 Nordeste 19 Nordeste 0 -- -- 58
2021-02-26 12:00:00 14 11 Norte 18 Norte 0 -- -- 63
2021-02-26 11:00:00 13.2 9 Nordeste 16 Nordeste 0 -- -- 67
2021-02-26 10:00:00 11.7 6 Nordeste 13 Nordeste 0 -- -- 75
2021-02-26 09:00:00 9.2 0 Calma 2 Norte 0 -- -- 97
2021-02-26 08:00:00 6.9 0 Calma 3 Noroeste 0 -- -- 96
2021-02-26 07:00:00 5.6 0 Calma 2 Noroeste 0 -- -- 93
2021-02-26 06:00:00 4.4 0 Calma 3 Sudoeste 0 -- -- 92
2021-02-26 05:00:00 3.7 0 Calma 3 Sudoeste 0 -- -- 87
2021-02-26 04:00:00 3.7 0 Calma 2 Sudoeste 0 -- -- 85
2021-02-26 03:00:00 4 0 Calma -- -- 0 -- -- 84
2021-02-26 02:00:00 4.4 0 Calma -- -- 0 -- -- 84
2021-02-26 01:00:00 5 0 Calma 2 Sudoeste 0 -- -- 83
2021-02-26 00:00:00 5.7 0 Calma 0 Calma 0 -- -- 82
2021-02-25 23:00:00 6.6 0 Calma 3 Sudoeste 0 -- -- 80
2021-02-25 22:00:00 7.4 0 Calma 3 Sudoeste 0 -- -- 79
2021-02-25 21:00:00 8.7 0 Calma 4 Este 0 -- -- 75
2021-02-25 20:00:00 11.5 2 Este 12 Sudeste 0 -- -- 67
2021-02-25 19:00:00 12.4 5 Este 12 Nordeste 0 -- -- 63
2021-02-25 18:00:00 14.6 9 Nordeste 18 Norte 0 -- -- 54
2021-02-25 17:00:00 16.2 12 Nordeste 19 Nordeste 0 -- -- 51
2021-02-25 16:00:00 16.9 9 Nordeste 18 Nordeste 0 -- -- 51
2021-02-25 15:00:00 17 9 Este 18 Este 0 -- -- 49
2021-02-25 14:00:00 17 8 Nordeste 15 Norte 0 -- -- 51
2021-02-25 13:00:00 16.2 8 Norte 14 Nordeste 0 -- -- 52
2021-02-25 12:00:00 15.2 4 Sudeste 14 Este 0 -- -- 57
2021-02-25 11:00:00 14.3 5 Este 10 Nordeste 0 -- -- 65
2021-02-25 10:00:00 12.8 0 Calma 3 Nordeste 0 -- -- 78
2021-02-25 09:00:00 8.2 0 Calma 2 Sudeste 0 -- -- 96
2021-02-25 08:00:00 4.4 0 Calma 2 Sur 0 -- -- 89
2021-02-25 07:00:00 4.5 0 Calma 0 Calma 0 -- -- 87
2021-02-25 06:00:00 4.7 0 Calma -- -- 0 -- -- 87
2021-02-25 05:00:00 5.2 0 Calma 0 Calma 0 -- -- 87
2021-02-25 04:00:00 5.3 0 Calma 2 Sur 0 -- -- 86
2021-02-25 03:00:00 5.9 0 Calma 3 Sur 0 -- -- 86
2021-02-25 02:00:00 6.2 0 Calma 0 Calma 0 -- -- 85
2021-02-25 01:00:00 6.7 0 Calma 3 Sudoeste 0 -- -- 84
2021-02-25 00:00:00 7.3 0 Calma 2 Sudeste 0 -- -- 83
2021-02-24 23:00:00 8.3 0 Calma -- -- 0 -- -- 83
2021-02-24 22:00:00 9.6 0 Calma 9 Este 0 -- -- 82
2021-02-24 21:00:00 11.6 5 Sudeste 10 Este 0 -- -- 78
2021-02-24 20:00:00 12.2 4 Este 12 Sudeste 0 -- -- 72
2021-02-24 19:00:00 13 9 Sudeste 18 Este 0 -- -- 67
2021-02-24 18:00:00 14.8 9 Este 18 Este 0 -- -- 59
2021-02-24 17:00:00 15.9 10 Este 20 Nordeste 0 -- -- 52
2021-02-24 16:00:00 16 11 Este 26 Este 0 -- -- 49
2021-02-24 15:00:00 16.5 12 Este 21 Este 0 -- -- 48
2021-02-24 14:00:00 15.8 12 Este 23 Este 0 -- -- 50
2021-02-24 13:00:00 16.3 13 Este 26 Este 0 -- -- 47
2021-02-24 12:00:00 16.2 15 Este 26 Este 0 -- -- 45
2021-02-24 11:00:00 15.1 8 Nordeste 18 Nordeste 0 -- -- 64
2021-02-24 10:00:00 12.6 0 Calma 3 Sudoeste 0 -- -- 92
2021-02-24 09:00:00 9 0 Calma 3 Nordeste 0 -- -- 98
2021-02-24 08:00:00 6.9 0 Calma -- -- 0 -- -- 98
2021-02-24 07:00:00 6.4 0 Calma 0 Calma 0 -- -- 92
2021-02-24 06:00:00 7.3 0 Calma 3 Sudoeste 0 -- -- 91
2021-02-24 05:00:00 8.3 0 Calma 2 Sudoeste 0 -- -- 89
2021-02-24 04:00:00 9.1 0 Calma 2 Sudoeste 0 -- -- 87
2021-02-24 03:00:00 10.6 0 Calma 3 Oeste 0 -- -- 86
2021-02-24 02:00:00 12.2 0 Calma 6 Nordeste 0 -- -- 84
2021-02-24 01:00:00 13.3 0 Calma 9 Nordeste 0 -- -- 84
2021-02-24 00:00:00 13.4 3 Nordeste 6 Nordeste 0 -- -- 89
2021-02-23 23:00:00 13.6 3 Norte 9 Nordeste 0 -- -- 90
2021-02-23 22:00:00 13.7 5 Nordeste 10 Nordeste 0 -- -- 88
2021-02-23 21:00:00 13.8 8 Norte 14 Norte 0 -- -- 87
2021-02-23 20:00:00 13.7 8 Norte 13 Norte 0 -- -- 84
2021-02-23 19:00:00 13.7 7 Nordeste 15 Nordeste 0 -- -- 80
2021-02-23 18:00:00 14.8 11 Nordeste 23 Norte 0 -- -- 75
2021-02-23 17:00:00 16.2 13 Norte 22 Norte 0 -- -- 72
2021-02-23 16:00:00 16.1 14 Nordeste 22 Norte 0 -- -- 75
2021-02-23 15:00:00 16.3 13 Norte 22 Nordeste 0 -- -- 75
2021-02-23 14:00:00 16.2 13 Nordeste 19 Norte 0 -- -- 73
2021-02-23 13:00:00 15.2 11 Norte 16 Norte 0 -- -- 76
2021-02-23 12:00:00 14.7 12 Norte 19 Norte 0 -- -- 78
2021-02-23 11:00:00 13.5 10 Norte 14 Norte 0 -- -- 91
2021-02-23 10:00:00 12 4 Norte 8 Norte 0 -- -- 98
2021-02-23 09:00:00 10.5 0 Calma 4 Oeste 0 -- -- 98
2021-02-23 08:00:00 8.6 0 Calma -- -- 0 -- -- 97
2021-02-23 07:00:00 8.7 0 Calma 4 Oeste 0 -- -- 97
2021-02-23 06:00:00 8.6 0 Calma 4 Sudoeste 0 -- -- 98
2021-02-23 05:00:00 8.1 0 Calma -- -- 0 -- -- 97
2021-02-23 04:00:00 8.1 0 Calma 0 Calma 0 -- -- 97
2021-02-23 03:00:00 7.9 0 Calma 4 Oeste 0 -- -- 97
2021-02-23 02:00:00 7.1 0 Calma 4 Sudeste 0 -- -- 94
2021-02-23 01:00:00 7.4 0 Calma 6 Sur 0 -- -- 91
2021-02-23 00:00:00 8.4 5 Sur 6 Sur 0 -- -- 93
2021-02-22 23:00:00 8.8 0 Calma 3 Sur 0 -- -- 87
2021-02-22 22:00:00 9.8 0 Calma 5 Sur 0 -- -- 85
2021-02-22 21:00:00 11 3 Sur 4 Sur 0 -- -- 84
2021-02-22 20:00:00 12.1 0 Calma 7 Sudeste 0 -- -- 79
2021-02-22 19:00:00 13.2 5 Sudeste 11 Sur 0 -- -- 72
2021-02-22 18:00:00 14.2 6 Sudeste 15 Sur 0 -- -- 67
2021-02-22 17:00:00 14.9 7 Sur 15 Sur 0 -- -- 68
2021-02-22 16:00:00 14 12 Sudeste 24 Sur 0 -- -- 70
2021-02-22 15:00:00 14.8 9 Sur 21 Sur 0 -- -- 65
2021-02-22 14:00:00 14.6 10 Sudoeste 21 Sur 0 -- -- 68
2021-02-22 13:00:00 14.4 10 Sur 18 Sur 0 -- -- 69
2021-02-22 12:00:00 13.6 8 Sur 17 Sudeste 0 -- -- 75
2021-02-22 11:00:00 13.8 7 Sur 15 Sur 0 -- -- 73
2021-02-22 10:00:00 13.4 0 Calma 13 Sudoeste 0 -- -- 77
2021-02-22 09:00:00 13.3 6 Sudoeste 17 Sudoeste 0 -- -- 75
2021-02-22 08:00:00 13.5 7 Sur 23 Sur 0 -- -- 75
2021-02-22 07:00:00 13.7 15 Sudoeste 27 Sudoeste 0 -- -- 75
2021-02-22 06:00:00 14 8 Sudoeste 19 Sur 0 -- -- 72
2021-02-22 05:00:00 14.2 9 Sur 24 Sur 0 -- -- 72
2021-02-22 04:00:00 14.3 10 Sur 19 Sur 0 -- -- 72
2021-02-22 03:00:00 14.5 7 Sur 23 Sur 0 -- -- 76
2021-02-22 02:00:00 15.2 8 Sur 18 Sudoeste 0 -- -- 74
2021-02-22 01:00:00 15.9 4 Sudoeste 20 Sur 0 -- -- 65
2021-02-22 00:00:00 16.6 6 Sudoeste 25 Sur 0 -- -- 58
2021-02-21 23:00:00 17.6 13 Sudeste 23 Sur 0 -- -- 55
2021-02-21 22:00:00 17.1 5 Sur 19 Sudeste 0 -- -- 57
2021-02-21 21:00:00 16.7 10 Este 23 Sudeste 0 -- -- 59
2021-02-21 20:00:00 15.9 10 Este 23 Sudeste 0 -- -- 64
2021-02-21 19:00:00 15.5 10 Nordeste 23 Este 0 -- -- 68
2021-02-21 18:00:00 16.1 9 Este 23 Este 0 -- -- 65
2021-02-21 17:00:00 16.6 11 Este 26 Este 0 -- -- 63
2021-02-21 16:00:00 17.2 13 Este 23 Este 0 -- -- 62
2021-02-21 15:00:00 16.8 15 Este 32 Este 0 -- -- 65
2021-02-21 14:00:00 17 15 Este 32 Este 0 -- -- 66
2021-02-21 13:00:00 16.8 17 Este 34 Este 0 -- -- 67
2021-02-21 12:00:00 16.8 16 Este 31 Sudeste 0 -- -- 68
2021-02-21 11:00:00 15.8 15 Este 32 Este 0 -- -- 73
2021-02-21 10:00:00 14.6 16 Este 27 Este 0 -- -- 82
2021-02-21 09:00:00 13.6 13 Este 27 Este 0 -- -- 91
2021-02-21 08:00:00 12.8 9 Este 19 Este 0 -- -- 94
2021-02-21 07:00:00 12 9 Nordeste 13 Este 0 -- -- 94
2021-02-21 06:00:00 12 5 Nordeste 14 Nordeste 0 -- -- 92
2021-02-21 05:00:00 12.4 7 Nordeste 21 Este 0 -- -- 92
2021-02-21 04:00:00 12.4 8 Este 21 Este 0 -- -- 92
2021-02-21 03:00:00 12.5 8 Este 24 Este 0 -- -- 94
2021-02-21 02:00:00 12.1 12 Nordeste 25 Este 0 -- -- 97
2021-02-21 01:00:00 10.9 0 Calma 6 Norte 0 -- -- 96
2021-02-21 00:00:00 10.3 0 Calma 3 Nordeste 0 -- -- 94
2021-02-20 23:00:00 9.3 2 Oeste 4 Noroeste 0 -- -- 90
2021-02-20 22:00:00 9.4 0 Calma 5 Oeste 0 -- -- 85
2021-02-20 21:00:00 10.6 0 Calma 9 Este 0 -- -- 82
2021-02-20 20:00:00 11.8 0 Calma 14 Sudeste 0 -- -- 80
2021-02-20 19:00:00 12.9 8 Este 16 Este 0 -- -- 76
2021-02-20 18:00:00 15.3 10 Este 16 Este 0 -- -- 62
2021-02-20 17:00:00 17.1 10 Este 17 Este 0 -- -- 53
2021-02-20 16:00:00 17.6 12 Este 19 Este 0 -- -- 51
2021-02-20 15:00:00 18.2 10 Este 20 Este 0 -- -- 50
2021-02-20 14:00:00 18.2 10 Sudeste 19 Este 0 -- -- 50
2021-02-20 13:00:00 17.4 9 Este 16 Este 0 -- -- 58
2021-02-20 12:00:00 16.4 5 Sudeste 13 Este 0 -- -- 63
2021-02-20 11:00:00 14.3 5 Este 17 Este 0 -- -- 76
2021-02-20 10:00:00 12.5 8 Este 14 Sudeste 0 -- -- 84
2021-02-20 09:00:00 9.5 0 Calma 5 Sur 0 -- -- 98
2021-02-20 08:00:00 5.7 0 Calma 3 Sudoeste 0 -- -- 90
2021-02-20 07:00:00 6.6 0 Calma 3 Sudoeste 0 -- -- 89
2021-02-20 06:00:00 8.1 0 Calma 3 Sur 0 -- -- 89
2021-02-20 05:00:00 9.7 0 Calma 9 Sudoeste 0 -- -- 87
2021-02-20 04:00:00 10.7 4 Sur 10 Sudoeste 0 -- -- 96
2021-02-20 03:00:00 10.2 3 Sur 9 Sudoeste 0 -- -- 97
2021-02-20 02:00:00 10.3 3 Sur 8 Sur 0 -- -- 98
2021-02-20 01:00:00 9.3 4 Sur 10 Sudeste 0 -- -- 99
2021-02-20 00:00:00 9.7 4 Sudeste 6 Sur 0 -- -- 93
2021-02-19 23:00:00 10.5 3 Sur 11 Sudoeste 0 -- -- 92
2021-02-19 22:00:00 9.8 0 Calma 5 Sur 0 -- -- 86
2021-02-19 21:00:00 10.3 2 Sur 8 Sudoeste 0 -- -- 83
2021-02-19 20:00:00 11.2 4 Sudoeste 9 Sudoeste 0 -- -- 80
2021-02-19 19:00:00 13.2 6 Sudoeste 11 Sur 0 -- -- 73
2021-02-19 18:00:00 15.3 7 Sur 14 Sudeste 0 -- -- 64
2021-02-19 17:00:00 17.8 7 Sudeste 18 Nordeste 0 -- -- 56
2021-02-19 16:00:00 17.7 13 Nordeste 21 Nordeste 0 -- -- 60
2021-02-19 15:00:00 18.7 6 Este 12 Este 0 -- -- 51
2021-02-19 14:00:00 17.7 4 Este 10 Nordeste 0 -- -- 58
2021-02-19 13:00:00 16.3 3 Nordeste 11 Este 0 -- -- 60
2021-02-19 12:00:00 15.3 5 Este 10 Sudeste 0 -- -- 66
2021-02-19 11:00:00 13.8 4 Norte 8 Norte 0 -- -- 76
2021-02-19 10:00:00 12.8 3 Sudeste 6 Sudeste 0 -- -- 80
2021-02-19 09:00:00 7.9 0 Calma 4 Sudeste 0 -- -- 98
2021-02-19 08:00:00 4.6 0 Calma 3 Sudeste 0 -- -- 96
2021-02-19 07:00:00 5.5 0 Calma 3 Oeste 0 -- -- 96
2021-02-19 06:00:00 6.3 0 Calma 5 Sur 0 -- -- 96
2021-02-19 05:00:00 7.8 3 Sur 8 Sudoeste 0 -- -- 96
2021-02-19 04:00:00 7.7 0 Calma 4 Sur 0 -- -- 94
2021-02-19 03:00:00 8.1 0 Calma 0 Calma 0 -- -- 93
2021-02-19 02:00:00 7.9 0 Calma 14 Sudeste 0 -- -- 88
2021-02-19 01:00:00 9.3 9 Sur 13 Sur 0 -- -- 92
2021-02-19 00:00:00 9.8 5 Sur 8 Sur 0 -- -- 92
2021-02-18 23:00:00 9.9 5 Sur 8 Sur 0 -- -- 93
2021-02-18 22:00:00 10.7 3 Sudoeste 9 Sur 0 -- -- 88
2021-02-18 21:00:00 11.2 3 Sur 8 Sur 0 -- -- 82
2021-02-18 20:00:00 13 5 Sudeste 15 Sudeste 0 -- -- 81
2021-02-18 19:00:00 14.1 7 Sudeste 15 Sudeste 0 -- -- 74
2021-02-18 18:00:00 16.8 8 Sudeste 16 Sudeste 0 -- -- 56
2021-02-18 17:00:00 18.4 9 Sudeste 17 Sudeste 0 -- -- 50
2021-02-18 16:00:00 18.9 10 Sudeste 19 Sudeste 0 -- -- 44
2021-02-18 15:00:00 19.2 9 Sudeste 18 Sudeste 0 -- -- 44
2021-02-18 14:00:00 18.7 11 Sudeste 19 Este 0 -- -- 50
2021-02-18 13:00:00 18.1 10 Sudeste 19 Este 0 -- -- 51
2021-02-18 12:00:00 16.7 10 Sudeste 20 Sudeste 0 -- -- 56
2021-02-18 11:00:00 14.8 3 Sudeste 12 Sudeste 0 -- -- 70
2021-02-18 10:00:00 12.6 4 Este 13 Este 0 -- -- 79
2021-02-18 09:00:00 11.1 0 Calma 3 Oeste 0 -- -- 85
2021-02-18 08:00:00 10.8 0 Calma 10 Sur 0 -- -- 85
2021-02-18 07:00:00 10.7 3 Sudeste 8 Sudeste 0 -- -- 87
2021-02-18 06:00:00 10.7 3 Sur 9 Sudoeste 0 -- -- 88
2021-02-18 05:00:00 10.9 0 Calma 9 Sudeste 0 -- -- 91
2021-02-18 04:00:00 10.9 2 Sur 13 Sudoeste 0 -- -- 96
2021-02-18 03:00:00 10.8 2 Sudoeste 10 Sur 0 -- -- 97
2021-02-18 02:00:00 10.5 4 Sudoeste 12 Sudoeste 0 -- -- 97
2021-02-18 01:00:00 10.5 5 Sur 13 Sur 0 -- -- 97
2021-02-18 00:00:00 10.2 4 Sur 10 Sur 0 -- -- 97
2021-02-17 23:00:00 8.7 5 Sur 8 Sur 0 -- -- 88
2021-02-17 22:00:00 9 3 Sur 9 Sur 0 -- -- 86
2021-02-17 21:00:00 9.7 3 Sur 7 Sur 0 -- -- 83
2021-02-17 20:00:00 10.3 2 Sur 6 Sudoeste 0 -- -- 80
2021-02-17 19:00:00 11.9 2 Oeste 6 Nordeste 0 -- -- 75
2021-02-17 18:00:00 14.1 5 Nordeste 11 Nordeste 0 -- -- 67
2021-02-17 17:00:00 15.3 6 Nordeste 15 Nordeste 0 -- -- 63
2021-02-17 16:00:00 18.2 5 Sudoeste 11 Sudeste 0 -- -- 53
2021-02-17 15:00:00 18.1 6 Sudoeste 13 Sudoeste 0 -- -- 53
2021-02-17 14:00:00 17.4 6 Sur 14 Sur 0 -- -- 52
2021-02-17 13:00:00 16.2 6 Sur 14 Sur 0 -- -- 57
2021-02-17 12:00:00 14.7 6 Sur 13 Sur 0 -- -- 62
2021-02-17 11:00:00 13.2 7 Sur 11 Sudeste 0 -- -- 66
2021-02-17 10:00:00 11.2 5 Sur 12 Sur 0 -- -- 80
2021-02-17 09:00:00 6.5 3 Sur 6 Sudoeste 0 -- -- 99
2021-02-17 08:00:00 3.1 0 Calma -- -- 0 -- -- 92
2021-02-17 07:00:00 3.1 0 Calma 4 Sur 0 -- -- 91
2021-02-17 06:00:00 3.8 0 Calma 3 Sudoeste 0 -- -- 90
2021-02-17 05:00:00 4.3 0 Calma -- -- 0 -- -- 89
2021-02-17 04:00:00 5.5 0 Calma 4 Sudoeste 0 -- -- 90
2021-02-17 03:00:00 7.1 0 Calma 10 Sur 0 -- -- 91
2021-02-17 02:00:00 7.4 2 Sudeste 5 Sur 0 -- -- 93
2021-02-17 01:00:00 6 0 Calma 6 Sur 0 -- -- 84
2021-02-17 00:00:00 7.2 3 Sur 10 Sur 0 -- -- 85
2021-02-16 23:00:00 7.3 4 Sudoeste 8 Sur 0 -- -- 84
2021-02-16 22:00:00 7.8 4 Sur 8 Sudoeste 0 -- -- 80
2021-02-16 21:00:00 7.9 5 Sur 6 Sur 0 -- -- 77
2021-02-16 20:00:00 8.9 3 Sur 10 Sudoeste 0 -- -- 72
2021-02-16 19:00:00 10.8 4 Sudoeste 16 Sudoeste 0 -- -- 66
2021-02-16 18:00:00 13.1 9 Sudoeste 21 Sudoeste 0 -- -- 57
2021-02-16 17:00:00 14.2 11 Sudoeste 24 Sudoeste 0 -- -- 52
2021-02-16 16:00:00 14.4 12 Sudoeste 22 Sudoeste 0 -- -- 51
2021-02-16 15:00:00 14.5 12 Sudoeste 27 Oeste 0 -- -- 53
2021-02-16 14:00:00 14.2 10 Oeste 21 Sudoeste 0 -- -- 54
2021-02-16 13:00:00 13.6 11 Sudoeste 20 Sudoeste 0 -- -- 54
2021-02-16 12:00:00 12.7 8 Sudoeste 21 Sur 0 -- -- 57
2021-02-16 11:00:00 12.6 8 Sur 16 Sur 0 -- -- 59
2021-02-16 10:00:00 10.2 4 Oeste 8 Sudoeste 0 -- -- 68
2021-02-16 09:00:00 5.5 0 Calma -- -- 0 -- -- 89
2021-02-16 08:00:00 2.1 0 Calma 2 Sur 0 -- -- 85
2021-02-16 07:00:00 2 0 Calma -- -- 0 -- -- 83
2021-02-16 06:00:00 2.6 0 Calma -- -- 0 -- -- 83
2021-02-16 05:00:00 3.4 0 Calma 5 Sudoeste 0 -- -- 83
2021-02-16 04:00:00 4 0 Calma 4 Sur 0 -- -- 81
2021-02-16 03:00:00 4.9 0 Calma 3 Sur 0 -- -- 80
2021-02-16 02:00:00 5.9 0 Calma 2 Sur 0 -- -- 77
2021-02-16 01:00:00 6.7 0 Calma 3 Sur 0 -- -- 75
2021-02-16 00:00:00 7.8 0 Calma 3 Sur 0 -- -- 73
2021-02-15 23:00:00 8.5 0 Calma 5 Sur 0 -- -- 67
2021-02-15 22:00:00 8.8 0 Calma 4 Sur 0 -- -- 67
2021-02-15 21:00:00 9.1 0 Calma 8 Sur 0 -- -- 64
2021-02-15 20:00:00 9.5 4 Sudeste 9 Sudeste 0 -- -- 58
2021-02-15 19:00:00 9.7 7 Sudeste 15 Sudeste 0 -- -- 57
2021-02-15 18:00:00 10.1 9 Sudeste 16 Este 0 -- -- 57
2021-02-15 17:00:00 10.4 10 Sudeste 17 Sudeste 0 -- -- 56
2021-02-15 16:00:00 11.3 7 Sudeste 14 Sudeste 0 -- -- 53
2021-02-15 15:00:00 11.5 8 Sudeste 13 Sudeste 0 -- -- 51
2021-02-15 14:00:00 11.8 3 Sudeste 13 Sudeste 0 -- -- 53
2021-02-15 13:00:00 10.9 8 Sudeste 14 Sudeste 0 -- -- 54
2021-02-15 12:00:00 10.3 8 Sudeste 16 Sudeste 0 -- -- 57
2021-02-15 11:00:00 9.5 5 Sudeste 9 Este 0 -- -- 62
2021-02-15 10:00:00 8.4 0 Calma 3 Noroeste 0 -- -- 68
2021-02-15 09:00:00 6.8 0 Calma 3 Oeste 0 -- -- 82
2021-02-15 08:00:00 6 0 Calma 3 Oeste 0 -- -- 82
2021-02-15 07:00:00 5.5 0 Calma 4 Sudeste 0 -- -- 84
2021-02-15 06:00:00 4.7 0 Calma 3 Sudoeste 0 -- -- 85
2021-02-15 05:00:00 4.1 0 Calma 3 Sudoeste 0 -- -- 83
2021-02-15 04:00:00 4.2 0 Calma 3 Sur 0 -- -- 82
2021-02-15 03:00:00 4.8 0 Calma 4 Sudoeste 0 -- -- 78
2021-02-15 02:00:00 5.3 0 Calma 0 Calma 0 -- -- 76
2021-02-15 01:00:00 6.3 0 Calma 2 Noroeste 0 -- -- 72
2021-02-15 00:00:00 7 0 Calma 9 Este 0 -- -- 68
2021-02-14 23:00:00 7.5 4 Este 8 Este 0 -- -- 63
2021-02-14 22:00:00 7.8 2 Este 9 Nordeste 0 -- -- 64
2021-02-14 21:00:00 8 5 Nordeste 8 Este 0 -- -- 63
2021-02-14 20:00:00 8.3 3 Nordeste 14 Este 0 -- -- 63
2021-02-14 19:00:00 8.5 7 Nordeste 16 Este 0 -- -- 61
2021-02-14 18:00:00 9.4 10 Nordeste 18 Nordeste 0 -- -- 57
2021-02-14 17:00:00 9.9 11 Este 24 Este 0 -- -- 56
2021-02-14 16:00:00 10.5 13 Este 22 Nordeste 0.2 -- -- 54
2021-02-14 15:00:00 10.1 13 Nordeste 23 Este 0 -- -- 60
2021-02-14 14:00:00 10.5 14 Este 26 Este 0 -- -- 61
2021-02-14 13:00:00 10.8 13 Nordeste 21 Este 0 -- -- 60
2021-02-14 12:00:00 10.6 12 Este 22 Nordeste 0 -- -- 64
2021-02-14 11:00:00 11.1 14 Nordeste 21 Nordeste 0 -- -- 64
2021-02-14 10:00:00 11 10 Nordeste 19 Nordeste 0 -- -- 68
2021-02-14 09:00:00 10.3 5 Nordeste 10 Nordeste 0 -- -- 75
2021-02-14 08:00:00 10 8 Nordeste 12 Nordeste 0 -- -- 78
2021-02-14 07:00:00 10.3 5 Norte 8 Norte 0 -- -- 86
2021-02-14 06:00:00 10.7 0 Calma 6 Este 0 -- -- 88
2021-02-14 05:00:00 10.7 2 Norte 8 Este 0 -- -- 88
2021-02-14 04:00:00 10.9 6 Este 10 Este 0.2 -- -- 86
2021-02-14 03:00:00 10.5 0 Calma 2 Noroeste 0 -- -- 88
2021-02-14 02:00:00 9.8 0 Calma 2 Noroeste 0 -- -- 87
2021-02-14 01:00:00 10.7 2 Sudeste 4 Sur 0 -- -- 84
2021-02-14 00:00:00 11.2 0 Calma 3 Noroeste 0 -- -- 83
2021-02-13 23:00:00 11.5 0 Calma 5 Norte 0 -- -- 81
2021-02-13 22:00:00 11.9 0 Calma 6 Este 0 -- -- 77
2021-02-13 21:00:00 12 3 Este 9 Este 0 -- -- 77
2021-02-13 20:00:00 12.4 0 Calma 8 Nordeste 0 -- -- 76
2021-02-13 19:00:00 12.9 0 Calma 8 Nordeste 0 -- -- 75
2021-02-13 18:00:00 13.3 3 Norte 8 Norte 0 -- -- 72
2021-02-13 17:00:00 13.9 6 Nordeste 9 Nordeste 0 -- -- 68
2021-02-13 16:00:00 14 8 Norte 12 Norte 0 -- -- 67
2021-02-13 15:00:00 14.5 8 Nordeste 15 Nordeste 0 -- -- 65
2021-02-13 14:00:00 15.4 5 Norte 12 Norte 0 -- -- 61
2021-02-13 13:00:00 14.8 9 Norte 16 Norte 0 -- -- 64
2021-02-13 08:00:00 -- -- -- -- -- -- -- -- --
2021-02-13 07:00:00 10 4 Sudeste 13 Nordeste 0 -- -- 96
2021-02-13 06:00:00 10.8 11 Nordeste 20 Nordeste 0.2 -- -- 97
2021-02-13 05:00:00 9.3 0 Calma 8 Sudoeste 0 -- -- 97
2021-02-13 04:00:00 9.3 2 Sur 8 Sudoeste 0 -- -- 95
2021-02-13 03:00:00 9.8 0 Calma 6 Sudoeste 0 -- -- 89
2021-02-13 02:00:00 11.1 4 Sur 10 Sudeste 0 -- -- 89
2021-02-13 01:00:00 11.5 3 Oeste 10 Oeste 0.6 -- -- 88
2021-02-13 00:00:00 11.5 4 Oeste 9 Norte 2 -- -- 88
2021-02-12 23:00:00 12.2 6 Oeste 18 Oeste 0.2 -- -- 79
2021-02-12 22:00:00 13.2 8 Oeste 21 Noroeste 0 -- -- 69
2021-02-12 21:00:00 14.4 13 Oeste 24 Oeste 0 -- -- 58
2021-02-12 20:00:00 13.2 13 Oeste 21 Oeste 0 -- -- 64
2021-02-12 19:00:00 13.2 6 Sudoeste 22 Sudoeste 0.2 -- -- 71
2021-02-12 18:00:00 15.1 9 Noroeste 31 Oeste 0 -- -- 58
2021-02-12 17:00:00 16.2 18 Sudoeste 38 Sudoeste 0 -- -- 69
2021-02-12 16:00:00 15.8 16 Sudoeste 34 Sudoeste 0 -- -- 72
2021-02-12 15:00:00 15.1 18 Sudoeste 34 Sudoeste 0 -- -- 76
2021-02-12 14:00:00 15.8 14 Sudoeste 27 Sudoeste 0 -- -- 74
2021-02-12 13:00:00 15.6 12 Sudoeste 25 Sudoeste 0 -- -- 76
2021-02-12 12:00:00 15.8 15 Sudoeste 31 Sudoeste 0 -- -- 74
2021-02-12 11:00:00 15.2 11 Sudoeste 28 Sudoeste 0 -- -- 82
2021-02-12 10:00:00 14 12 Sudoeste 26 Sudoeste 0 -- -- 94
2021-02-12 09:00:00 13.6 11 Sudoeste 26 Sudoeste 0 -- -- 97
2021-02-12 08:00:00 13.3 8 Sudoeste 18 Sur 0 -- -- 97
2021-02-12 07:00:00 13.1 6 Sur 15 Sur 0 -- -- 98
2021-02-12 06:00:00 12.3 3 Sudoeste 13 Sur 0 -- -- 98
2021-02-12 05:00:00 11.8 5 Sur 13 Sur 0 -- -- 96
2021-02-12 04:00:00 11 5 Sudoeste 14 Sudoeste 0 -- -- 86
2021-02-12 03:00:00 9.3 3 Sur 9 Sur 0 -- -- 82
2021-02-12 02:00:00 8.2 2 Sur 5 Sur 0 -- -- 83
2021-02-12 01:00:00 8.3 0 Calma 6 Sur 0 -- -- 80
2021-02-12 00:00:00 9.1 0 Calma 6 Sudoeste 0 -- -- 77
2021-02-11 23:00:00 10.7 0 Calma 10 Sudoeste 0 -- -- 76
2021-02-11 22:00:00 9.9 0 Calma 6 Oeste 0 -- -- 77
2021-02-11 21:00:00 10.3 0 Calma 4 Nordeste 0 -- -- 72
2021-02-11 20:00:00 11.9 0 Calma 8 Sur 0 -- -- 64
2021-02-11 19:00:00 13.5 4 Nordeste 16 Sudoeste 0 -- -- 57
2021-02-11 18:00:00 15.5 10 Sudoeste 24 Sudoeste 0 -- -- 49
2021-02-11 17:00:00 18 12 Sudoeste 25 Sudoeste 0 -- -- 37
2021-02-11 16:00:00 18.9 15 Sudoeste 24 Sudoeste 0 -- -- 31
2021-02-11 15:00:00 18.8 14 Sudoeste 24 Sudoeste 0 -- -- 32
2021-02-11 14:00:00 18.7 10 Sudoeste 24 Sudoeste 0 -- -- 36
2021-02-11 13:00:00 18.3 11 Sudoeste 27 Sudoeste 0 -- -- 35
2021-02-11 12:00:00 16.9 12 Sudoeste 26 Sudoeste 0 -- -- 45
2021-02-11 11:00:00 15.7 12 Sudoeste 24 Sudoeste 0 -- -- 50
2021-02-11 10:00:00 14.1 12 Sudoeste 22 Sudoeste 0 -- -- 65
2021-02-11 09:00:00 12.3 8 Sudoeste 16 Sudoeste 0 -- -- 67
2021-02-11 08:00:00 9.6 5 Sudoeste 13 Sudoeste 0 -- -- 76
2021-02-11 07:00:00 9.8 7 Sudoeste 18 Sudoeste 0 -- -- 70
2021-02-11 06:00:00 10 9 Sudoeste 18 Sudoeste 0 -- -- 63
2021-02-11 05:00:00 9.3 6 Sudoeste 14 Sudoeste 0 -- -- 64
2021-02-11 04:00:00 9.8 6 Sur 13 Sur 0 -- -- 66
2021-02-11 03:00:00 9.8 6 Sur 13 Sudoeste 0 -- -- 67
2021-02-11 02:00:00 9.7 6 Sudoeste 16 Sur 0 -- -- 56
2021-02-11 01:00:00 10.2 6 Sur 14 Sur 0 -- -- 52
2021-02-11 00:00:00 10.7 8 Oeste 15 Oeste 0 -- -- 49
2021-02-10 23:00:00 10.3 7 Sudoeste 14 Sudoeste 0 -- -- 53
2021-02-10 22:00:00 12.2 9 Sudoeste 21 Sudeste 0 -- -- 45
2021-02-10 21:00:00 12.5 6 Oeste 28 Oeste 0 -- -- 46
2021-02-10 20:00:00 12.4 13 Oeste 32 Noroeste 0 -- -- 45
2021-02-10 19:00:00 12.9 14 Noroeste 37 Oeste 0 -- -- 42
2021-02-10 18:00:00 13.2 18 Oeste 36 Oeste 0 -- -- 44
2021-02-10 17:00:00 14.7 17 Oeste 42 Oeste 0 -- -- 40
2021-02-10 16:00:00 15.3 19 Oeste 51 Noroeste 0 -- -- 38
2021-02-10 15:00:00 15.3 24 Oeste 50 Oeste 0 -- -- 34
2021-02-10 14:00:00 14.8 20 Oeste 48 Oeste 0 -- -- 41
2021-02-10 13:00:00 15.3 28 Oeste 62 Oeste 0 -- -- 43
2021-02-10 12:00:00 15.5 26 Oeste 63 Sudoeste 0 -- -- 43
2021-02-10 11:00:00 15 30 Sudoeste 55 Sudoeste 0 -- -- 46
2021-02-10 10:00:00 15.4 23 Sudoeste 47 Sudoeste 0 -- -- 57
2021-02-10 09:00:00 15.3 24 Sudoeste 47 Sudoeste 0 -- -- 37
2021-02-10 08:00:00 14.5 23 Oeste 45 Oeste 0 -- -- 41
2021-02-10 07:00:00 14 22 Sudoeste 46 Sudoeste 0 -- -- 48
2021-02-10 06:00:00 13.8 26 Sudoeste 46 Sudoeste 0 -- -- 59
2021-02-10 05:00:00 13.2 19 Sudoeste 37 Sudoeste 0 -- -- 78
2021-02-10 04:00:00 13.4 21 Sudoeste 40 Sudoeste 0 -- -- 76
2021-02-10 03:00:00 13.2 17 Sudoeste 35 Sudoeste 0 -- -- 81
2021-02-10 02:00:00 13.2 18 Sudoeste 37 Sudoeste 0 -- -- 82
2021-02-10 01:00:00 13.4 19 Sudoeste 43 Sudoeste 0 -- -- 83
2021-02-10 00:00:00 13.8 25 Sudoeste 48 Oeste 0 -- -- 83
2021-02-09 23:00:00 13.7 27 Sudoeste 51 Sudoeste 0 -- -- 83
2021-02-09 22:00:00 13.5 16 Sudoeste 35 Sudoeste 0.8 -- -- 84
2021-02-09 21:00:00 13.3 14 Sudoeste 32 Sudoeste 0 -- -- 83
2021-02-09 20:00:00 12.7 11 Sudoeste 26 Sudoeste 0.2 -- -- 78
2021-02-09 19:00:00 12.9 10 Sudoeste 25 Sudoeste 0 -- -- 76
2021-02-09 18:00:00 13.5 15 Sudoeste 29 Sudoeste 0 -- -- 73
2021-02-09 17:00:00 14 11 Sudoeste 34 Sudoeste 0 -- -- 59
2021-02-09 16:00:00 14.6 17 Sudoeste 40 Sudoeste 0 -- -- 54
2021-02-09 15:00:00 14.9 19 Sudoeste 46 Sudoeste 0 -- -- 51
2021-02-09 14:00:00 15.7 16 Sudoeste 47 Sudoeste 0 -- -- 48
2021-02-09 13:00:00 16.3 23 Sudoeste 45 Oeste 0 -- -- 44
2021-02-09 12:00:00 14.6 15 Oeste 32 Oeste 0 -- -- 51
2021-02-09 11:00:00 13.9 15 Sudoeste 29 Sudoeste 0 -- -- 55
2021-02-09 10:00:00 13.2 13 Sudoeste 22 Sudoeste 0 -- -- 57
2021-02-09 09:00:00 11.4 11 Sudoeste 18 Sudoeste 0 -- -- 65
2021-02-09 08:00:00 10.1 9 Sudoeste 16 Sudoeste 0 -- -- 70
2021-02-09 07:00:00 10 4 Sur 20 Sudoeste 0 -- -- 70
2021-02-09 06:00:00 10.9 12 Sudoeste 23 Sudoeste 0 -- -- 66
2021-02-09 05:00:00 11.6 11 Sudoeste 27 Oeste 0 -- -- 60
2021-02-09 04:00:00 11 6 Sudoeste 17 Sudoeste 0 -- -- 64
2021-02-09 03:00:00 10.7 7 Sudoeste 17 Oeste 0 -- -- 65
2021-02-09 02:00:00 10.6 8 Sudoeste 13 Sudoeste 0 -- -- 65
2021-02-09 01:00:00 11.7 7 Sudoeste 18 Sur 0 -- -- 61
2021-02-09 00:00:00 11.6 8 Sudoeste 26 Sudoeste 0 -- -- 63
2021-02-08 23:00:00 11.5 8 Sudoeste 24 Sudoeste 0 -- -- 62
2021-02-08 22:00:00 12.2 16 Sudoeste 34 Sudoeste 0 -- -- 62
2021-02-08 21:00:00 13.1 16 Sudoeste 39 Sudoeste 0 -- -- 52
2021-02-08 20:00:00 13.3 19 Sudoeste 35 Sudoeste 0 -- -- 52
2021-02-08 19:00:00 13.4 17 Sudoeste 33 Sudoeste 0 -- -- 56
2021-02-08 18:00:00 13.9 18 Sudoeste 45 Sudoeste 0 -- -- 57
2021-02-08 17:00:00 14.6 24 Sudoeste 48 Oeste 0 -- -- 53
2021-02-08 16:00:00 14.5 24 Sudoeste 50 Sudoeste 0 -- -- 63
2021-02-08 15:00:00 13.8 25 Sudoeste 50 Sudoeste 0.6 -- -- 79
2021-02-08 14:00:00 12.7 13 Sudoeste 42 Sudoeste 0.4 -- -- 81
2021-02-08 13:00:00 12.6 18 Sudoeste 52 Sudoeste 0.2 -- -- 74
2021-02-08 12:00:00 14.3 18 Sudoeste 47 Sudoeste 0 -- -- 61
2021-02-08 11:00:00 14.8 19 Sudoeste 41 Sudoeste 0 -- -- 53
2021-02-08 10:00:00 13.2 17 Sudoeste 41 Sudoeste 0 -- -- 61
2021-02-08 09:00:00 12.1 21 Sudoeste 41 Sudoeste 0 -- -- 65
2021-02-08 08:00:00 11.1 19 Sudoeste 35 Sudoeste 0 -- -- 70
2021-02-08 07:00:00 11.2 21 Sudoeste 38 Sudoeste 0 -- -- 70
2021-02-08 06:00:00 11.2 15 Sudoeste 33 Sudoeste 0 -- -- 68
2021-02-08 05:00:00 10.4 8 Sudoeste 20 Sudoeste 0 -- -- 73
2021-02-08 04:00:00 9.5 8 Sudoeste 15 Sur 0 -- -- 77
2021-02-08 03:00:00 7.6 0 Calma 11 Sudoeste 0 -- -- 77
2021-02-08 02:00:00 7.9 8 Sudoeste 12 Sudoeste 0 -- -- 75
2021-02-08 01:00:00 8.5 6 Sudoeste 13 Sudoeste 0 -- -- 68
2021-02-08 00:00:00 8.3 8 Sudoeste 14 Sudoeste 0 -- -- 63
2021-02-07 23:00:00 7.3 3 Sur 12 Sur 0 -- -- 63
2021-02-07 22:00:00 7.4 2 Sudoeste 9 Sudoeste 0 -- -- 63
2021-02-07 21:00:00 8.6 5 Sudoeste 10 Sur 0 -- -- 59
2021-02-07 20:00:00 9 6 Sudoeste 16 Sudoeste 0 -- -- 56
2021-02-07 19:00:00 9.6 11 Sudoeste 15 Sudoeste 0 -- -- 51
2021-02-07 18:00:00 11.7 8 Sudoeste 20 Sudoeste 0 -- -- 45
2021-02-07 17:00:00 13.9 8 Oeste 24 Oeste 0 -- -- 39
2021-02-07 16:00:00 14.2 10 Oeste 24 Noroeste 0 -- -- 37
2021-02-07 15:00:00 13.8 10 Oeste 26 Oeste 0 -- -- 42
2021-02-07 14:00:00 13.2 12 Oeste 28 Oeste 0 -- -- 40
2021-02-07 13:00:00 13.5 14 Oeste 30 Oeste 0 -- -- 36
2021-02-07 12:00:00 13.5 14 Oeste 28 Oeste 0 -- -- 40
2021-02-07 11:00:00 14.3 14 Sudoeste 24 Oeste 0 -- -- 50
2021-02-07 10:00:00 12.8 12 Oeste 22 Sudoeste 0 -- -- 63
2021-02-07 09:00:00 10.8 12 Sudoeste 22 Sudoeste 0 -- -- 72
2021-02-07 08:00:00 10.1 9 Sudoeste 18 Sudoeste 0 -- -- 81
2021-02-07 07:00:00 10.4 6 Sudoeste 17 Oeste 0 -- -- 93
2021-02-07 06:00:00 11.4 12 Sudoeste 23 Sudoeste 0 -- -- 94
2021-02-07 05:00:00 11.6 6 Sudoeste 10 Sudoeste 0 -- -- 89
2021-02-07 04:00:00 11.4 4 Sur 12 Sur 0 -- -- 88
2021-02-07 03:00:00 11.1 3 Sur 14 Sudoeste 0 -- -- 85
2021-02-07 02:00:00 11.4 6 Sudoeste 17 Sur 0 -- -- 83
2021-02-07 01:00:00 11.8 7 Sur 18 Sudoeste 0 -- -- 82
2021-02-07 00:00:00 12.3 8 Sudoeste 15 Sudoeste 0 -- -- 81
2021-02-06 23:00:00 12.4 10 Sudoeste 23 Sur 0 -- -- 82
2021-02-06 22:00:00 12.5 9 Sur 22 Sur 0 -- -- 80
2021-02-06 21:00:00 12.5 10 Sur 19 Sudoeste 0 -- -- 83
2021-02-06 20:00:00 12.8 6 Oeste 19 Oeste 0 -- -- 80
2021-02-06 19:00:00 13.4 10 Sudoeste 21 Sudoeste 0 -- -- 76
2021-02-06 18:00:00 14.7 9 Sudoeste 21 Sur 0 -- -- 69
2021-02-06 17:00:00 16 11 Sudoeste 28 Sudoeste 0 -- -- 63
2021-02-06 16:00:00 16.9 12 Sudoeste 27 Sudoeste 0 -- -- 58
2021-02-06 15:00:00 16.5 19 Sudoeste 30 Oeste 0 -- -- 60
2021-02-06 14:00:00 16.5 18 Sudoeste 32 Sudoeste 0 -- -- 60
2021-02-06 13:00:00 17.4 14 Sudoeste 28 Sudoeste 0 -- -- 58
2021-02-06 12:00:00 17.6 15 Sudoeste 30 Sudoeste 0 -- -- 58
2021-02-06 11:00:00 16.6 13 Sudoeste 25 Sur 0 -- -- 70
2021-02-06 10:00:00 15.6 6 Sudoeste 17 Sudoeste 0 -- -- 75
2021-02-06 09:00:00 14.8 8 Sudoeste 20 Sudoeste 0 -- -- 77
2021-02-06 08:00:00 15.2 10 Sudoeste 19 Sudoeste 0 -- -- 72
2021-02-06 07:00:00 16.2 8 Sur 15 Sur 0 -- -- 57
2021-02-06 06:00:00 17.5 8 Sur 30 Sudoeste 0 -- -- 46
2021-02-06 05:00:00 19.4 13 Sudoeste 34 Sudoeste 0 -- -- 33
2021-02-06 04:00:00 20.5 17 Sur 41 Sudeste 0 -- -- 26
2021-02-06 03:00:00 21.1 19 Sur 40 Sur 0 -- -- 25
2021-02-06 02:00:00 15.6 4 Sudoeste 27 Sur 0 -- -- 47
2021-02-06 01:00:00 14.3 4 Norte 10 Norte 0 -- -- 63
2021-02-06 00:00:00 13.1 0 Calma 6 Sur 0 -- -- 69
2021-02-05 23:00:00 12.4 0 Calma 3 Sudoeste 0 -- -- 69
2021-02-05 22:00:00 12.6 0 Calma 2 Sudeste 0 -- -- 69
2021-02-05 21:00:00 12.5 0 Calma 4 Norte 0 -- -- 68
2021-02-05 20:00:00 13 2 Norte 5 Norte 0 -- -- 63
2021-02-05 19:00:00 15.3 0 Calma 9 Este 0 -- -- 54
2021-02-05 18:00:00 18.4 6 Sudeste 14 Sudeste 0 -- -- 39
2021-02-05 17:00:00 20 5 Sudeste 20 Sudeste 0 -- -- 33
2021-02-05 16:00:00 22.2 10 Sur 22 Sudoeste 0 -- -- 26
2021-02-05 15:00:00 23.2 10 Sur 24 Sur 0 -- -- 22
2021-02-05 14:00:00 22.8 13 Sudoeste 29 Sudoeste 0 -- -- 24
2021-02-05 13:00:00 22.2 12 Sur 23 Sur 0 -- -- 28
2021-02-05 12:00:00 20.6 8 Sur 17 Sur 0 -- -- 38
2021-02-05 11:00:00 17.6 0 Calma 6 Sudeste 0 -- -- 63
2021-02-05 10:00:00 13.8 2 Sudeste 6 Sur 0 -- -- 80
2021-02-05 09:00:00 9.7 0 Calma 4 Sur 0 -- -- 92
2021-02-05 08:00:00 9.1 3 Sur 8 Sudeste 0 -- -- 91
2021-02-05 07:00:00 9.4 0 Calma 6 Sur 0 -- -- 91
2021-02-05 06:00:00 9.1 0 Calma 4 Noroeste 0 -- -- 91
2021-02-05 05:00:00 9.4 0 Calma 8 Sudeste 0 -- -- 90
2021-02-05 04:00:00 9 4 Sur 10 Sur 0 -- -- 93
2021-02-05 03:00:00 8 0 Calma 3 Oeste 0 -- -- 85
2021-02-05 02:00:00 8.4 0 Calma 6 Sur 0 -- -- 83
2021-02-05 01:00:00 9.6 0 Calma 2 Sudeste 0 -- -- 82
2021-02-05 00:00:00 10.6 0 Calma 8 Sudeste 0 -- -- 79
2021-02-04 23:00:00 11.1 3 Sudeste 10 Sudeste 0 -- -- 79
2021-02-04 22:00:00 10.9 3 Sudeste 6 Sur 0 -- -- 79
2021-02-04 21:00:00 11.1 3 Sur 6 Sudoeste 0 -- -- 82
2021-02-04 20:00:00 12 0 Calma 4 Sur 0 -- -- 76
2021-02-04 19:00:00 14.7 3 Sur 9 Sudoeste 0 -- -- 69
2021-02-04 18:00:00 18.2 4 Sudoeste 14 Sudoeste 0 -- -- 55
2021-02-04 17:00:00 20.7 6 Sur 12 Sur 0 -- -- 40
2021-02-04 16:00:00 19.9 6 Sudeste 10 Sudeste 0 -- -- 50
2021-02-04 15:00:00 20.2 6 Sudeste 12 Sudeste 0 -- -- 48
2021-02-04 14:00:00 18 4 Sudeste 10 Sudeste 0 -- -- 69
2021-02-04 13:00:00 14.8 7 Sur 12 Sudoeste 0 -- -- 82
2021-02-04 12:00:00 12.3 7 Sur 12 Sudeste 0 -- -- 98
2021-02-04 11:00:00 10.6 4 Sur 7 Sur 0 -- -- 100
2021-02-04 10:00:00 10 4 Sudoeste 13 Sudoeste 0 -- -- 100
2021-02-04 09:00:00 9.3 7 Sudeste 11 Sudeste 0 -- -- 100
2021-02-04 08:00:00 9.5 3 Sudoeste 7 Sudoeste 0 -- -- 100
2021-02-04 07:00:00 9.8 5 Sudoeste 8 Sudoeste 0 -- -- 99
2021-02-04 06:00:00 10.3 5 Sur 10 Sur 0 -- -- 99
2021-02-04 05:00:00 10.1 3 Sur 11 Sudoeste 0 -- -- 99
2021-02-04 04:00:00 9.7 2 Sudoeste 9 Sur 0 -- -- 98
2021-02-04 03:00:00 9.6 2 Sur 9 Sur 0 -- -- 98
2021-02-04 02:00:00 8.8 3 Sur 9 Sur 0 -- -- 97
2021-02-04 01:00:00 9.7 0 Calma 5 Sur 0 -- -- 94
2021-02-04 00:00:00 10.7 0 Calma 4 Sudeste 0 -- -- 93
2021-02-03 23:00:00 11.1 4 Sudoeste 9 Sudoeste 0 -- -- 90
2021-02-03 22:00:00 11.5 3 Sudoeste 14 Sudoeste 0 -- -- 87
2021-02-03 21:00:00 12 7 Sudoeste 14 Sudoeste 0 -- -- 86
2021-02-03 20:00:00 12.4 3 Oeste 18 Sudoeste 0 -- -- 78
2021-02-03 19:00:00 13.3 7 Sudoeste 19 Sudoeste 0 -- -- 69
2021-02-03 18:00:00 15.1 8 Sudoeste 17 Sudoeste 0 -- -- 59
2021-02-03 17:00:00 18.5 5 Sudoeste 21 Sudoeste 0 -- -- 45
2021-02-03 16:00:00 18.9 8 Sudoeste 28 Sudoeste 0 -- -- 45
2021-02-03 15:00:00 18 13 Sudoeste 31 Sudoeste 0 -- -- 48
2021-02-03 14:00:00 17.9 16 Sudoeste 33 Oeste 0 -- -- 50
2021-02-03 13:00:00 18.7 16 Sudoeste 32 Sudoeste 0 -- -- 49
2021-02-03 12:00:00 16.7 18 Sudoeste 34 Sudoeste 0 -- -- 59
2021-02-03 11:00:00 14.7 16 Sudoeste 32 Sudoeste 0 -- -- 71
2021-02-03 10:00:00 13.7 9 Sudoeste 28 Sudoeste 0 -- -- 80
2021-02-03 09:00:00 12.9 8 Sur 22 Sudoeste 0 -- -- 87
2021-02-03 08:00:00 12.4 6 Sur 24 Sur 0 -- -- 89
2021-02-03 07:00:00 12.1 9 Sur 25 Sur 0 -- -- 89
2021-02-03 06:00:00 12.2 6 Sur 19 Sur 0 -- -- 89
2021-02-03 05:00:00 12.4 4 Sur 20 Sur 0 -- -- 88
2021-02-03 04:00:00 12.6 8 Sudoeste 21 Sudoeste 0 -- -- 91
2021-02-03 03:00:00 12.1 6 Sur 18 Sur 0 -- -- 98
2021-02-03 02:00:00 11.1 5 Sudoeste 13 Sur 0 -- -- 94
2021-02-03 01:00:00 11.2 6 Sur 13 Sur 0 -- -- 94
2021-02-03 00:00:00 11.5 5 Sudoeste 15 Sudoeste 0 -- -- 91
2021-02-02 23:00:00 12.1 11 Sudoeste 23 Sudoeste 0 -- -- 88
2021-02-02 22:00:00 12.4 11 Sudoeste 19 Sudoeste 0 -- -- 78
2021-02-02 21:00:00 12.8 6 Sudoeste 13 Sudoeste 0 -- -- 68
2021-02-02 20:00:00 13.8 6 Sudoeste 15 Sudoeste 0 -- -- 61
2021-02-02 19:00:00 15.2 8 Sur 12 Sur 0 -- -- 57
2021-02-02 18:00:00 18 6 Sudoeste 12 Sur 0 -- -- 48
2021-02-02 17:00:00 20.2 7 Sudoeste 18 Oeste 0 -- -- 45
2021-02-02 16:00:00 20.9 8 Sudoeste 19 Sudoeste 0 -- -- 43
2021-02-02 15:00:00 20.5 12 Sudoeste 18 Sudoeste 0 -- -- 46
2021-02-02 14:00:00 20.5 8 Oeste 14 Oeste 0 -- -- 45
2021-02-02 13:00:00 19.6 8 Sudoeste 18 Sudoeste 0 -- -- 47
2021-02-02 12:00:00 20.4 7 Oeste 17 Sur 0 -- -- 40
2021-02-02 11:00:00 19 7 Sudoeste 16 Sudoeste 0 -- -- 44
2021-02-02 10:00:00 16.9 5 Sur 10 Sudeste 0 -- -- 50
2021-02-02 09:00:00 14.3 5 Sudeste 11 Sur 0 -- -- 57
2021-02-02 08:00:00 10.6 5 Sur 13 Sur 0 -- -- 69
2021-02-02 07:00:00 12.6 9 Sur 15 Sudeste 0 -- -- 62
2021-02-02 06:00:00 12.8 4 Sudoeste 11 Sur 0 -- -- 60
2021-02-02 05:00:00 14 8 Sudoeste 19 Sur 0 -- -- 56
2021-02-02 04:00:00 13.6 7 Sudoeste 15 Sudoeste 0 -- -- 62
2021-02-02 03:00:00 16.2 6 Sudoeste 22 Sur 0 -- -- 41
2021-02-02 02:00:00 16.7 6 Sur 24 Oeste 0 -- -- 39
2021-02-02 01:00:00 18 17 Noroeste 34 Oeste 0 -- -- 36
2021-02-02 00:00:00 17.5 13 Oeste 24 Noroeste 0 -- -- 37
2021-02-01 23:00:00 17.8 13 Sudoeste 24 Sur 0 -- -- 38
2021-02-01 22:00:00 18 8 Sudoeste 37 Noroeste 0 -- -- 37
2021-02-01 21:00:00 18.6 26 Noroeste 55 Oeste 0 -- -- 34
2021-02-01 20:00:00 18.5 29 Noroeste 52 Noroeste 0 -- -- 33
2021-02-01 19:00:00 17.9 27 Oeste 58 Oeste 0 -- -- 33
2021-02-01 18:00:00 17.6 18 Oeste 35 Oeste 0 -- -- 32
2021-02-01 17:00:00 18.1 15 Oeste 35 Oeste 0 -- -- 31
2021-02-01 16:00:00 17.6 18 Oeste 55 Oeste 0 -- -- 33
2021-02-01 15:00:00 18 20 Oeste 57 Oeste 0 -- -- 32
2021-02-01 14:00:00 17.8 30 Oeste 71 Oeste 0 -- -- 33
2021-02-01 13:00:00 17.5 38 Oeste 72 Oeste 0 -- -- 33
2021-02-01 12:00:00 17.4 40 Oeste 64 Noroeste 0 -- -- 33
2021-02-01 11:00:00 17.5 21 Oeste 57 Oeste 0 -- -- 33
2021-02-01 10:00:00 17.8 16 Oeste 37 Sudoeste 0 -- -- 34
2021-02-01 09:00:00 17.1 13 Sudoeste 28 Oeste 0 -- -- 34
2021-02-01 08:00:00 16.9 18 Oeste 57 Noroeste 0 -- -- 36
2021-02-01 07:00:00 17.6 38 Oeste 60 Oeste 0 -- -- 32
2021-02-01 06:00:00 17.2 22 Oeste 39 Oeste 0 -- -- 37
2021-02-01 05:00:00 16.5 11 Oeste 28 Sudoeste 0 -- -- 40
2021-02-01 04:00:00 16 15 Sudoeste 27 Sudoeste 0 -- -- 47
2021-02-01 03:00:00 15 13 Sudoeste 28 Oeste 0 -- -- 56
2021-02-01 02:00:00 13.5 6 Sudoeste 24 Sudoeste 0 -- -- 67
2021-02-01 01:00:00 14.2 13 Sudoeste 27 Sudoeste 0 -- -- 63
2021-02-01 00:00:00 13.6 9 Sur 22 Sudoeste 0 -- -- 68
2021-01-31 23:00:00 14 12 Sudoeste 25 Sudoeste 0 -- -- 66
2021-01-31 22:00:00 15.1 13 Sudoeste 33 Oeste 0 -- -- 56
2021-01-31 21:00:00 15.1 16 Oeste 32 Oeste 0 -- -- 53
2021-01-31 20:00:00 13.1 6 Sudoeste 19 Sudoeste 0 -- -- 63
2021-01-31 19:00:00 13.4 7 Sur 19 Sur 0 -- -- 62
2021-01-31 18:00:00 15.1 6 Sur 23 Sudoeste 0 -- -- 42
2021-01-31 17:00:00 15.4 9 Sudoeste 29 Sudoeste 0 -- -- 37
2021-01-31 16:00:00 16.7 17 Sudoeste 33 Sudoeste 0 -- -- 33
2021-01-31 15:00:00 16.5 13 Sudoeste 33 Oeste 0 -- -- 38
2021-01-31 14:00:00 16.3 21 Oeste 34 Oeste 0 -- -- 37
2021-01-31 13:00:00 16.6 13 Oeste 49 Oeste 0 -- -- 34
2021-01-31 12:00:00 16.1 19 Noroeste 40 Noroeste 0 -- -- 36
2021-01-31 11:00:00 15.7 17 Oeste 46 Oeste 0 -- -- 36
2021-01-31 10:00:00 14.5 26 Oeste 58 Oeste 0 -- -- 38
2021-01-31 09:00:00 14 20 Oeste 40 Oeste 0 -- -- 40
2021-01-31 08:00:00 12.4 8 Sudoeste 30 Sudoeste 0 -- -- 44
2021-01-31 07:00:00 12.5 9 Oeste 27 Oeste 0 -- -- 45
2021-01-31 06:00:00 12 12 Sudoeste 23 Sudoeste 0 -- -- 53
2021-01-31 05:00:00 11.9 13 Sudoeste 29 Sudoeste 0 -- -- 61
2021-01-31 04:00:00 11.7 12 Sudoeste 22 Sudoeste 0 -- -- 55
2021-01-31 03:00:00 11.3 11 Sudoeste 19 Sudoeste 0 -- -- 58
2021-01-31 02:00:00 13 10 Oeste 37 Oeste 0 -- -- 45
2021-01-31 01:00:00 13.1 15 Oeste 32 Oeste 0 -- -- 48
2021-01-31 00:00:00 13.7 14 Oeste 30 Noroeste 0 -- -- 44